Flight Track Log - Related Links

Times and Time Zones

All times are in EDT time to prevent confusion due to time zone crossing. See the UAL5900 flight status page for this flight to view local times or setup timezone preferences in your user account.

Time Position Orientation Groundspeed Altitude Reporting Facility
EDT Latitude Longitude Course Direction KTS MPH feet Rate Location/Type
Sun 07:16:56 PM 41.9333 -87.9333 186° South 184 212 3,200  Level Chicago TRACON
Sun 07:17:56 PM 41.8833 -87.9333 180° South 196 226 4,900 1,922 Climbing Chicago TRACON
Sun 07:19:04 PM 41.8131 -87.9308 178° South 215 247 7,300 2,123 Climbing Chicago Center
Sun 07:20:06 PM 41.7483 -87.9225 175° South 232 267 9,500 1,659 Climbing Chicago Center
Sun 07:21:07 PM 41.6586 -87.9106 174° South 279 321 10,700 1,317 Climbing Chicago Center
Sun 07:22:00 PM 41.4048 -87.7760 186° South  Level Estimated
Sun 07:22:09 PM 41.5719 -87.8992 174° South 307 353 12,200  Level Chicago Center
Sun 07:23:11 PM 41.4825 -87.8878 175° South 318 366 13,900 1,440 Climbing Chicago Center
Sun 07:24:14 PM 41.3911 -87.8794 176° South 327 376 15,200 1,258 Climbing Chicago Center
Sun 07:25:15 PM 41.2983 -87.8889 184° South 330 380 16,500 1,220 Climbing Chicago Center
Sun 07:26:17 PM 41.2022 -87.8928 182° South 339 390 17,700 1,306 Climbing Chicago Center
Sun 07:27:19 PM 41.1033 -87.8894 179° South 351 404 19,200 1,306 Climbing Chicago Center
Sun 07:28:21 PM 41.0028 -87.8850 178° South 359 413 20,400 1,306 Climbing Chicago Center
Sun 07:29:23 PM 40.8794 -87.8819 179° South 369 425 21,900 1,306 Climbing Chicago Center
Sun 07:30:25 PM 40.7767 -87.8803 179° South 371 427 23,100 1,210 Climbing Chicago Center
Sun 07:31:27 PM 40.6722 -87.8753 178° South 376 433 24,400 1,220 Climbing Chicago Center
Sun 07:32:28 PM 40.5675 -87.8731 179° South 378 435 25,600 1,171 Climbing Chicago Center
Sun 07:33:30 PM 40.4622 -87.8686 178° South 379 436 26,800 1,161 Climbing Chicago Center
Sun 07:34:32 PM 40.3575 -87.8672 179° South 379 436 28,000 1,229 Climbing Chicago Center
Sun 07:34:53 PM 40.3206 -87.8625 174° South 378 435 28,500 1,301 Climbing Indianapolis Center
Sun 07:35:55 PM 40.1931 -87.8575 178° South 379 436 29,800 726 Climbing Indianapolis Center
Sun 07:36:57 PM 40.0839 -87.8528 178° South 385 443 30,000 97 Climbing Indianapolis Center
Sun 07:37:59 PM 39.9675 -87.8433 176° South 401 461 30,000  Level Indianapolis Center
Sun 07:39:00 PM 39.8453 -87.8394 179° South 420 483 30,000  Level Indianapolis Center
Sun 07:40:02 PM 39.7228 -87.8308 177° South 431 496 30,000  Level Indianapolis Center
Sun 07:41:04 PM 39.6003 -87.7989 169° South 441 507 30,000  Level Indianapolis Center
Sun 07:42:05 PM 39.4775 -87.7683 169° South 447 514 30,000  Level Indianapolis Center
Sun 07:43:07 PM 39.3550 -87.7378 169° South 447 514 30,000  Level Indianapolis Center
Sun 07:44:09 PM 39.2064 -87.7011 169° South 452 520 30,000  Level Indianapolis Center
Sun 07:45:10 PM 39.0844 -87.6703 169° South 447 514 30,000  Level Indianapolis Center
Sun 07:46:12 PM 38.9603 -87.6394 169° South 452 520 30,000  Level Indianapolis Center
Sun 07:47:13 PM 38.8364 -87.6094 169° South 453 521 30,000  Level Indianapolis Center
Sun 07:48:15 PM 38.7119 -87.5797 169° South 454 522 30,000  Level Indianapolis Center
Sun 07:49:17 PM 38.5864 -87.5481 169° South 457 526 30,000  Level Indianapolis Center
Sun 07:50:18 PM 38.4619 -87.5189 170° South 457 526 30,000  Level Indianapolis Center
Sun 07:51:20 PM 38.3367 -87.4889 169° South 459 528 30,000  Level Indianapolis Center
Sun 07:52:22 PM 38.1878 -87.4533 169° South 459 528 30,000  Level Indianapolis Center
Sun 07:53:23 PM 38.0631 -87.4236 169° South 459 528 30,000  Level Indianapolis Center
Sun 07:54:25 PM 37.9364 -87.3925 169° South 462 532 30,000 -681 Level Indianapolis Center
Sun 07:56:28 PM 37.6847 -87.3325 169° South 449 517 27,900 -1,412 Descending Indianapolis Center
Sun 07:57:32 PM 37.5442 -87.2994 169° South 447 514 25,600 -2,032 Descending Memphis Center
Sun 07:58:32 PM 37.4372 -87.2747 170° South 447 514 23,700 -1,400 Descending Memphis Center
Sun 07:59:32 PM 37.3200 -87.2456 169° South 441 507 22,800 -1,795 Descending Memphis Center
Sun 08:00:29 PM 37.2047 -87.2161 169° South 397 457 20,200 -3,073 Descending Memphis Center
Sun 08:01:35 PM 37.0869 -87.1792 166° South 384 442 16,500 -2,683 Descending Memphis Center
Sun 08:02:32 PM 37.0031 -87.1542 167° South 383 441 14,700 -2,205 Descending Memphis Center
Sun 08:03:32 PM 36.9042 -87.1217 165° South 372 428 12,200 -1,900 Descending Memphis Center
Sun 08:04:32 PM 36.8097 -87.0944 167° South 358 412 10,900 -1,150 Descending Memphis Center
Sun 08:05:32 PM 36.7272 -87.0433 154° Southeast 320 368 9,900 -1,000 Descending Memphis Center
Sun 08:06:32 PM 36.6656 -87.0072 155° Southeast 271 312 8,900 -500 Descending Memphis Center
Sun 08:07:32 PM 36.6083 -86.9656 150° Southeast 248 285 8,900 -550 Level Memphis Center
Sun 08:08:32 PM 36.5486 -86.9164 147° Southeast 253 291 7,800 -1,300 Descending Memphis Center
Sun 08:09:32 PM 36.4911 -86.8722 148° Southeast 254 292 6,300 -1,350 Descending Memphis Center
Sun 08:10:32 PM 36.4356 -86.8283 148° Southeast 248 285 5,100 -1,050 Descending Memphis Center
Sun 08:11:32 PM 36.3886 -86.7917 148° Southeast 232 267 4,200 -900 Descending Memphis Center
Sun 08:12:32 PM 36.3375 -86.7528 148° Southeast 220 253 3,300 -1,050 Descending Memphis Center
Sun 08:13:32 PM 36.2886 -86.7189 151° Southeast 215 247 2,100 -650 Descending Memphis Center
Sun 08:14:32 PM 36.2375 -86.6825 150° Southeast 204 235 2,000 -150 Descending Memphis Center
Sun 08:15:32 PM 36.1931 -86.6589 157° South 193 222 1,800 -450 Descending Memphis Center
Sun 08:16:32 PM 36.1581 -86.6706 195° South 149 171 1,100 -550 Descending Memphis Center
Sun 08:17:32 PM 36.1206 -86.6750 185° South 135 155 700 -400 Descending Memphis Center
Sun 08:19:00 PM 36.1167 -86.6667 North  Level FlightAware Approximate
Sun 08:26:00 PM 36.1245 -86.6782 North  Level Estimated
Sun 08:27:00 PM 36.1245 -86.6782 North  Level Estimated
Sun 08:28:00 PM 36.1245 -86.6782 North  Level Estimated
Sun 08:29:00 PM 36.1245 -86.6782 North  Level Estimated
Sun 08:30:00 PM 36.1245 -86.6782 North  Level Estimated
Sun 08:31:00 PM 36.1245 -86.6782 North  Level Estimated
Sun 08:32:00 PM 36.1245 -86.6782 North  Level Estimated
Sun 08:33:00 PM 36.1245 -86.6782 North  Level Estimated

Login

Don't have an account? Register now (free) for customized features, flight alerts, and more!